sensor_id;sensor_type;location;lat;lon;timestamp;P1;durP1;ratioP1;P2;durP2;ratioP2
79414;SDS011;68864;44.972;19.612;2023-07-13T00:02:35;9.85;;;5.10;;
79414;SDS011;68864;44.972;19.612;2023-07-13T00:05:02;8.48;;;5.60;;
79414;SDS011;68864;44.972;19.612;2023-07-13T00:07:31;12.85;;;7.22;;
79414;SDS011;68864;44.972;19.612;2023-07-13T00:09:57;14.73;;;5.18;;
79414;SDS011;68864;44.972;19.612;2023-07-13T00:12:25;13.00;;;6.22;;
79414;SDS011;68864;44.972;19.612;2023-07-13T00:14:57;10.35;;;5.70;;
79414;SDS011;68864;44.972;19.612;2023-07-13T00:17:25;13.50;;;6.03;;
79414;SDS011;68864;44.972;19.612;2023-07-13T00:19:52;14.82;;;5.88;;
79414;SDS011;68864;44.972;19.612;2023-07-13T00:22:20;11.55;;;5.63;;
79414;SDS011;68864;44.972;19.612;2023-07-13T00:24:50;10.02;;;7.03;;
79414;SDS011;68864;44.972;19.612;2023-07-13T00:27:17;12.90;;;6.22;;
79414;SDS011;68864;44.972;19.612;2023-07-13T00:29:44;14.02;;;7.00;;
79414;SDS011;68864;44.972;19.612;2023-07-13T00:32:11;13.43;;;6.82;;
79414;SDS011;68864;44.972;19.612;2023-07-13T00:37:04;13.95;;;2.65;;
79414;SDS011;68864;44.972;19.612;2023-07-13T00:39:32;14.73;;;6.22;;
79414;SDS011;68864;44.972;19.612;2023-07-13T00:42:01;12.60;;;6.43;;
79414;SDS011;68864;44.972;19.612;2023-07-13T00:44:29;11.93;;;5.80;;
79414;SDS011;68864;44.972;19.612;2023-07-13T00:46:56;12.93;;;6.30;;
79414;SDS011;68864;44.972;19.612;2023-07-13T00:49:24;11.38;;;6.68;;
79414;SDS011;68864;44.972;19.612;2023-07-13T00:51:54;12.63;;;5.50;;
79414;SDS011;68864;44.972;19.612;2023-07-13T00:54:24;13.30;;;5.13;;
79414;SDS011;68864;44.972;19.612;2023-07-13T00:56:53;12.35;;;5.60;;
79414;SDS011;68864;44.972;19.612;2023-07-13T00:59:25;11.63;;;5.43;;
79414;SDS011;68864;44.972;19.612;2023-07-13T01:01:52;7.97;;;2.28;;
79414;SDS011;68864;44.972;19.612;2023-07-13T01:04:20;10.95;;;5.88;;
79414;SDS011;68864;44.972;19.612;2023-07-13T01:06:47;10.57;;;5.38;;
79414;SDS011;68864;44.972;19.612;2023-07-13T01:11:41;10.40;;;4.97;;
79414;SDS011;68864;44.972;19.612;2023-07-13T01:14:10;12.38;;;4.88;;
79414;SDS011;68864;44.972;19.612;2023-07-13T01:16:38;15.05;;;6.18;;
79414;SDS011;68864;44.972;19.612;2023-07-13T01:19:11;12.23;;;5.93;;
79414;SDS011;68864;44.972;19.612;2023-07-13T01:21:51;10.10;;;5.07;;
79414;SDS011;68864;44.972;19.612;2023-07-13T01:24:19;11.82;;;6.90;;
79414;SDS011;68864;44.972;19.612;2023-07-13T01:29:12;11.93;;;4.68;;
79414;SDS011;68864;44.972;19.612;2023-07-13T01:34:05;8.48;;;4.80;;
79414;SDS011;68864;44.972;19.612;2023-07-13T01:38:59;9.25;;;4.10;;
79414;SDS011;68864;44.972;19.612;2023-07-13T01:41:26;11.88;;;4.38;;
79414;SDS011;68864;44.972;19.612;2023-07-13T01:46:19;11.07;;;6.35;;
79414;SDS011;68864;44.972;19.612;2023-07-13T01:51:12;8.07;;;3.25;;
79414;SDS011;68864;44.972;19.612;2023-07-13T01:53:39;9.10;;;4.55;;
79414;SDS011;68864;44.972;19.612;2023-07-13T01:58:34;9.68;;;4.18;;
79414;SDS011;68864;44.972;19.612;2023-07-13T02:03:27;9.65;;;4.63;;
79414;SDS011;68864;44.972;19.612;2023-07-13T02:08:20;9.82;;;5.03;;
79414;SDS011;68864;44.972;19.612;2023-07-13T02:13:14;11.50;;;7.93;;
79414;SDS011;68864;44.972;19.612;2023-07-13T02:15:41;14.18;;;5.97;;
79414;SDS011;68864;44.972;19.612;2023-07-13T02:20:34;10.25;;;5.60;;
79414;SDS011;68864;44.972;19.612;2023-07-13T02:23:01;14.82;;;5.07;;
79414;SDS011;68864;44.972;19.612;2023-07-13T02:25:28;11.32;;;6.03;;
79414;SDS011;68864;44.972;19.612;2023-07-13T02:30:23;12.80;;;4.85;;
79414;SDS011;68864;44.972;19.612;2023-07-13T02:32:50;9.88;;;4.82;;
79414;SDS011;68864;44.972;19.612;2023-07-13T02:37:43;10.52;;;6.20;;
79414;SDS011;68864;44.972;19.612;2023-07-13T02:42:36;19.40;;;7.80;;
79414;SDS011;68864;44.972;19.612;2023-07-13T02:47:32;20.02;;;7.85;;
79414;SDS011;68864;44.972;19.612;2023-07-13T02:49:59;21.95;;;9.18;;
79414;SDS011;68864;44.972;19.612;2023-07-13T02:52:26;22.27;;;9.02;;
79414;SDS011;68864;44.972;19.612;2023-07-13T02:57:19;27.05;;;9.00;;
79414;SDS011;68864;44.972;19.612;2023-07-13T02:59:46;25.58;;;9.23;;
79414;SDS011;68864;44.972;19.612;2023-07-13T03:04:40;25.77;;;12.18;;
79414;SDS011;68864;44.972;19.612;2023-07-13T03:07:07;18.75;;;6.93;;
79414;SDS011;68864;44.972;19.612;2023-07-13T03:09:34;20.75;;;10.68;;
79414;SDS011;68864;44.972;19.612;2023-07-13T03:12:01;23.50;;;8.98;;
79414;SDS011;68864;44.972;19.612;2023-07-13T03:14:28;23.15;;;10.02;;
79414;SDS011;68864;44.972;19.612;2023-07-13T03:16:55;23.63;;;10.18;;
79414;SDS011;68864;44.972;19.612;2023-07-13T03:21:49;20.83;;;8.85;;
79414;SDS011;68864;44.972;19.612;2023-07-13T03:24:16;15.80;;;6.18;;
79414;SDS011;68864;44.972;19.612;2023-07-13T03:29:09;11.32;;;5.35;;
79414;SDS011;68864;44.972;19.612;2023-07-13T03:34:03;13.88;;;7.53;;
79414;SDS011;68864;44.972;19.612;2023-07-13T03:36:30;19.17;;;6.80;;
79414;SDS011;68864;44.972;19.612;2023-07-13T03:39:00;15.57;;;6.13;;
79414;SDS011;68864;44.972;19.612;2023-07-13T03:41:29;16.23;;;6.32;;
79414;SDS011;68864;44.972;19.612;2023-07-13T03:43:56;15.63;;;6.13;;
79414;SDS011;68864;44.972;19.612;2023-07-13T03:46:23;14.68;;;6.43;;
79414;SDS011;68864;44.972;19.612;2023-07-13T03:51:17;13.80;;;6.47;;
79414;SDS011;68864;44.972;19.612;2023-07-13T03:53:44;17.92;;;6.80;;
79414;SDS011;68864;44.972;19.612;2023-07-13T03:56:13;15.93;;;6.00;;
79414;SDS011;68864;44.972;19.612;2023-07-13T03:58:41;16.52;;;6.35;;
79414;SDS011;68864;44.972;19.612;2023-07-13T04:01:09;17.55;;;6.63;;
79414;SDS011;68864;44.972;19.612;2023-07-13T04:03:37;13.48;;;3.72;;
79414;SDS011;68864;44.972;19.612;2023-07-13T04:06:05;18.52;;;6.47;;
79414;SDS011;68864;44.972;19.612;2023-07-13T04:08:35;14.75;;;7.53;;
79414;SDS011;68864;44.972;19.612;2023-07-13T04:11:03;15.25;;;8.75;;
79414;SDS011;68864;44.972;19.612;2023-07-13T04:13:31;15.68;;;8.88;;
79414;SDS011;68864;44.972;19.612;2023-07-13T04:15:58;18.90;;;8.80;;
79414;SDS011;68864;44.972;19.612;2023-07-13T04:20:51;19.88;;;9.88;;
79414;SDS011;68864;44.972;19.612;2023-07-13T04:25:44;21.40;;;9.52;;
79414;SDS011;68864;44.972;19.612;2023-07-13T04:28:14;12.98;;;6.22;;
79414;SDS011;68864;44.972;19.612;2023-07-13T04:30:42;16.98;;;8.95;;
79414;SDS011;68864;44.972;19.612;2023-07-13T04:33:09;22.20;;;9.00;;
79414;SDS011;68864;44.972;19.612;2023-07-13T04:38:03;14.50;;;7.97;;
79414;SDS011;68864;44.972;19.612;2023-07-13T04:40:30;16.83;;;7.68;;
79414;SDS011;68864;44.972;19.612;2023-07-13T04:42:57;17.98;;;9.43;;
79414;SDS011;68864;44.972;19.612;2023-07-13T04:47:52;16.63;;;7.90;;
79414;SDS011;68864;44.972;19.612;2023-07-13T04:50:19;14.23;;;9.27;;
79414;SDS011;68864;44.972;19.612;2023-07-13T04:52:48;12.25;;;6.60;;
79414;SDS011;68864;44.972;19.612;2023-07-13T04:55:15;20.50;;;12.82;;
79414;SDS011;68864;44.972;19.612;2023-07-13T04:57:42;22.00;;;14.13;;
79414;SDS011;68864;44.972;19.612;2023-07-13T05:02:37;16.50;;;8.57;;
79414;SDS011;68864;44.972;19.612;2023-07-13T05:05:07;14.68;;;7.90;;
79414;SDS011;68864;44.972;19.612;2023-07-13T05:07:33;13.52;;;8.60;;
79414;SDS011;68864;44.972;19.612;2023-07-13T05:12:27;12.82;;;7.90;;
79414;SDS011;68864;44.972;19.612;2023-07-13T05:17:20;14.18;;;7.85;;
79414;SDS011;68864;44.972;19.612;2023-07-13T05:22:14;14.68;;;7.80;;
79414;SDS011;68864;44.972;19.612;2023-07-13T05:24:41;13.73;;;7.38;;
79414;SDS011;68864;44.972;19.612;2023-07-13T05:27:08;17.75;;;7.18;;
79414;SDS011;68864;44.972;19.612;2023-07-13T05:29:34;14.95;;;7.82;;
79414;SDS011;68864;44.972;19.612;2023-07-13T05:34:28;13.70;;;6.82;;
79414;SDS011;68864;44.972;19.612;2023-07-13T05:39:23;14.70;;;9.50;;
79414;SDS011;68864;44.972;19.612;2023-07-13T05:41:49;16.00;;;8.07;;
79414;SDS011;68864;44.972;19.612;2023-07-13T05:44:16;17.70;;;8.52;;
79414;SDS011;68864;44.972;19.612;2023-07-13T05:46:43;15.85;;;9.77;;
79414;SDS011;68864;44.972;19.612;2023-07-13T05:51:37;15.98;;;8.18;;
79414;SDS011;68864;44.972;19.612;2023-07-13T05:54:03;13.50;;;9.13;;
79414;SDS011;68864;44.972;19.612;2023-07-13T05:56:32;14.60;;;7.65;;
79414;SDS011;68864;44.972;19.612;2023-07-13T05:58:58;11.63;;;7.75;;
79414;SDS011;68864;44.972;19.612;2023-07-13T06:01:25;13.57;;;8.18;;
79414;SDS011;68864;44.972;19.612;2023-07-13T06:03:52;19.75;;;8.93;;
79414;SDS011;68864;44.972;19.612;2023-07-13T06:06:19;13.63;;;9.30;;
79414;SDS011;68864;44.972;19.612;2023-07-13T06:08:45;10.88;;;7.68;;
79414;SDS011;68864;44.972;19.612;2023-07-13T06:13:41;11.57;;;6.47;;
79414;SDS011;68864;44.972;19.612;2023-07-13T06:16:08;11.25;;;6.57;;
79414;SDS011;68864;44.972;19.612;2023-07-13T06:18:35;13.90;;;9.48;;
79414;SDS011;68864;44.972;19.612;2023-07-13T06:21:05;14.63;;;9.00;;
79414;SDS011;68864;44.972;19.612;2023-07-13T06:23:33;14.05;;;8.05;;
79414;SDS011;68864;44.972;19.612;2023-07-13T06:26:00;19.70;;;11.15;;
79414;SDS011;68864;44.972;19.612;2023-07-13T06:28:27;15.05;;;9.57;;
79414;SDS011;68864;44.972;19.612;2023-07-13T06:30:56;17.92;;;9.13;;
79414;SDS011;68864;44.972;19.612;2023-07-13T06:33:22;16.58;;;10.07;;
79414;SDS011;68864;44.972;19.612;2023-07-13T06:35:49;13.30;;;5.40;;
79414;SDS011;68864;44.972;19.612;2023-07-13T06:38:16;14.43;;;9.10;;
79414;SDS011;68864;44.972;19.612;2023-07-13T06:40:42;14.38;;;8.13;;
79414;SDS011;68864;44.972;19.612;2023-07-13T06:43:09;14.82;;;8.85;;
79414;SDS011;68864;44.972;19.612;2023-07-13T06:45:39;12.23;;;9.13;;
79414;SDS011;68864;44.972;19.612;2023-07-13T06:48:09;17.70;;;10.02;;
79414;SDS011;68864;44.972;19.612;2023-07-13T06:50:36;14.13;;;8.80;;
79414;SDS011;68864;44.972;19.612;2023-07-13T06:53:02;16.60;;;9.27;;
79414;SDS011;68864;44.972;19.612;2023-07-13T06:55:29;14.15;;;9.90;;
79414;SDS011;68864;44.972;19.612;2023-07-13T06:57:55;14.23;;;8.48;;
79414;SDS011;68864;44.972;19.612;2023-07-13T07:00:23;15.27;;;7.82;;
79414;SDS011;68864;44.972;19.612;2023-07-13T07:02:50;15.85;;;7.38;;
79414;SDS011;68864;44.972;19.612;2023-07-13T07:05:18;19.63;;;7.78;;
79414;SDS011;68864;44.972;19.612;2023-07-13T07:07:47;13.70;;;6.97;;
79414;SDS011;68864;44.972;19.612;2023-07-13T07:10:13;14.77;;;8.07;;
79414;SDS011;68864;44.972;19.612;2023-07-13T07:12:40;21.08;;;8.95;;
79414;SDS011;68864;44.972;19.612;2023-07-13T07:15:07;15.80;;;8.80;;
79414;SDS011;68864;44.972;19.612;2023-07-13T07:17:34;16.35;;;7.28;;
79414;SDS011;68864;44.972;19.612;2023-07-13T07:20:01;10.70;;;5.97;;
79414;SDS011;68864;44.972;19.612;2023-07-13T07:22:30;15.95;;;6.18;;
79414;SDS011;68864;44.972;19.612;2023-07-13T07:24:56;13.13;;;6.40;;
79414;SDS011;68864;44.972;19.612;2023-07-13T07:27:23;19.25;;;8.23;;
79414;SDS011;68864;44.972;19.612;2023-07-13T07:29:50;13.30;;;3.38;;
79414;SDS011;68864;44.972;19.612;2023-07-13T07:32:18;13.30;;;6.57;;
79414;SDS011;68864;44.972;19.612;2023-07-13T07:34:46;14.23;;;6.35;;
79414;SDS011;68864;44.972;19.612;2023-07-13T07:37:13;15.25;;;6.75;;
79414;SDS011;68864;44.972;19.612;2023-07-13T07:39:42;10.85;;;6.07;;
79414;SDS011;68864;44.972;19.612;2023-07-13T07:42:09;12.95;;;5.20;;
79414;SDS011;68864;44.972;19.612;2023-07-13T07:44:37;15.07;;;5.30;;
79414;SDS011;68864;44.972;19.612;2023-07-13T07:47:04;12.65;;;5.05;;
79414;SDS011;68864;44.972;19.612;2023-07-13T07:49:31;17.25;;;6.00;;
79414;SDS011;68864;44.972;19.612;2023-07-13T07:51:58;14.32;;;5.85;;
79414;SDS011;68864;44.972;19.612;2023-07-13T07:54:25;13.82;;;5.32;;
79414;SDS011;68864;44.972;19.612;2023-07-13T07:56:53;14.90;;;7.30;;
79414;SDS011;68864;44.972;19.612;2023-07-13T07:59:20;9.88;;;4.93;;
79414;SDS011;68864;44.972;19.612;2023-07-13T08:01:47;13.40;;;7.57;;
79414;SDS011;68864;44.972;19.612;2023-07-13T08:04:15;20.88;;;10.30;;
79414;SDS011;68864;44.972;19.612;2023-07-13T08:06:42;13.60;;;5.85;;
79414;SDS011;68864;44.972;19.612;2023-07-13T08:09:08;18.58;;;6.20;;
79414;SDS011;68864;44.972;19.612;2023-07-13T08:11:35;16.70;;;7.38;;
79414;SDS011;68864;44.972;19.612;2023-07-13T08:14:03;10.38;;;6.15;;
79414;SDS011;68864;44.972;19.612;2023-07-13T08:16:30;16.52;;;6.32;;
79414;SDS011;68864;44.972;19.612;2023-07-13T08:18:57;23.85;;;5.88;;
79414;SDS011;68864;44.972;19.612;2023-07-13T08:21:24;14.73;;;6.60;;
79414;SDS011;68864;44.972;19.612;2023-07-13T08:23:51;11.80;;;5.32;;
79414;SDS011;68864;44.972;19.612;2023-07-13T08:26:18;13.00;;;5.47;;
79414;SDS011;68864;44.972;19.612;2023-07-13T08:28:44;15.80;;;6.78;;
79414;SDS011;68864;44.972;19.612;2023-07-13T08:31:12;15.40;;;5.40;;
79414;SDS011;68864;44.972;19.612;2023-07-13T08:33:40;14.20;;;5.70;;
79414;SDS011;68864;44.972;19.612;2023-07-13T08:36:07;12.43;;;4.10;;
79414;SDS011;68864;44.972;19.612;2023-07-13T08:38:34;12.43;;;4.90;;
79414;SDS011;68864;44.972;19.612;2023-07-13T08:41:03;16.60;;;5.28;;
79414;SDS011;68864;44.972;19.612;2023-07-13T08:43:37;12.52;;;4.80;;
79414;SDS011;68864;44.972;19.612;2023-07-13T08:46:05;11.75;;;5.45;;
79414;SDS011;68864;44.972;19.612;2023-07-13T08:48:40;15.73;;;6.28;;
79414;SDS011;68864;44.972;19.612;2023-07-13T08:53:44;20.48;;;6.05;;
79414;SDS011;68864;44.972;19.612;2023-07-13T08:56:24;14.05;;;5.68;;
79414;SDS011;68864;44.972;19.612;2023-07-13T08:58:54;16.45;;;5.82;;
79414;SDS011;68864;44.972;19.612;2023-07-13T09:01:24;12.93;;;6.47;;
79414;SDS011;68864;44.972;19.612;2023-07-13T09:04:02;13.57;;;5.43;;
79414;SDS011;68864;44.972;19.612;2023-07-13T09:06:34;13.23;;;6.03;;
79414;SDS011;68864;44.972;19.612;2023-07-13T09:09:10;11.70;;;4.15;;
79414;SDS011;68864;44.972;19.612;2023-07-13T09:11:49;13.57;;;5.95;;
79414;SDS011;68864;44.972;19.612;2023-07-13T09:14:26;13.52;;;6.80;;
79414;SDS011;68864;44.972;19.612;2023-07-13T09:17:01;15.02;;;5.32;;
79414;SDS011;68864;44.972;19.612;2023-07-13T09:19:32;13.88;;;6.40;;
79414;SDS011;68864;44.972;19.612;2023-07-13T09:22:01;15.05;;;6.15;;
79414;SDS011;68864;44.972;19.612;2023-07-13T09:24:36;10.93;;;2.65;;
79414;SDS011;68864;44.972;19.612;2023-07-13T09:27:09;14.13;;;7.40;;
79414;SDS011;68864;44.972;19.612;2023-07-13T09:29:43;20.33;;;9.60;;
79414;SDS011;68864;44.972;19.612;2023-07-13T09:32:14;14.27;;;6.63;;
79414;SDS011;68864;44.972;19.612;2023-07-13T09:34:51;15.55;;;7.75;;
79414;SDS011;68864;44.972;19.612;2023-07-13T09:37:19;14.73;;;9.75;;
79414;SDS011;68864;44.972;19.612;2023-07-13T09:39:49;22.50;;;7.65;;
79414;SDS011;68864;44.972;19.612;2023-07-13T09:42:19;11.55;;;6.35;;
79414;SDS011;68864;44.972;19.612;2023-07-13T09:44:51;14.35;;;5.93;;
79414;SDS011;68864;44.972;19.612;2023-07-13T09:47:20;16.88;;;9.15;;
79414;SDS011;68864;44.972;19.612;2023-07-13T09:49:53;14.40;;;6.47;;
79414;SDS011;68864;44.972;19.612;2023-07-13T09:52:21;14.70;;;6.47;;
79414;SDS011;68864;44.972;19.612;2023-07-13T09:54:49;14.73;;;5.90;;
79414;SDS011;68864;44.972;19.612;2023-07-13T09:57:19;18.05;;;5.55;;
79414;SDS011;68864;44.972;19.612;2023-07-13T09:59:51;12.73;;;5.20;;
79414;SDS011;68864;44.972;19.612;2023-07-13T10:02:25;13.32;;;5.03;;
79414;SDS011;68864;44.972;19.612;2023-07-13T10:04:58;20.65;;;5.80;;
79414;SDS011;68864;44.972;19.612;2023-07-13T10:07:26;17.98;;;8.07;;
79414;SDS011;68864;44.972;19.612;2023-07-13T10:09:53;12.68;;;6.55;;
79414;SDS011;68864;44.972;19.612;2023-07-13T10:12:20;12.52;;;6.78;;
79414;SDS011;68864;44.972;19.612;2023-07-13T10:14:48;15.00;;;6.50;;
79414;SDS011;68864;44.972;19.612;2023-07-13T10:17:17;13.05;;;6.28;;
79414;SDS011;68864;44.972;19.612;2023-07-13T10:19:51;14.52;;;5.72;;
79414;SDS011;68864;44.972;19.612;2023-07-13T10:22:22;15.00;;;5.40;;
79414;SDS011;68864;44.972;19.612;2023-07-13T10:24:54;10.65;;;5.97;;
79414;SDS011;68864;44.972;19.612;2023-07-13T10:27:23;13.43;;;5.18;;
79414;SDS011;68864;44.972;19.612;2023-07-13T10:29:59;16.00;;;6.07;;
79414;SDS011;68864;44.972;19.612;2023-07-13T10:32:30;14.15;;;7.32;;
79414;SDS011;68864;44.972;19.612;2023-07-13T10:34:57;9.80;;;5.93;;
79414;SDS011;68864;44.972;19.612;2023-07-13T10:37:29;14.48;;;6.38;;
79414;SDS011;68864;44.972;19.612;2023-07-13T10:40:02;15.43;;;5.93;;
79414;SDS011;68864;44.972;19.612;2023-07-13T10:42:33;11.65;;;6.38;;
79414;SDS011;68864;44.972;19.612;2023-07-13T10:45:05;12.07;;;5.07;;
79414;SDS011;68864;44.972;19.612;2023-07-13T10:47:40;9.30;;;5.07;;
79414;SDS011;68864;44.972;19.612;2023-07-13T10:50:08;11.57;;;6.80;;
79414;SDS011;68864;44.972;19.612;2023-07-13T10:52:45;10.68;;;6.07;;
79414;SDS011;68864;44.972;19.612;2023-07-13T10:58:01;10.55;;;5.85;;
79414;SDS011;68864;44.972;19.612;2023-07-13T11:00:30;11.60;;;6.25;;
79414;SDS011;68864;44.972;19.612;2023-07-13T11:02:59;12.23;;;5.68;;
79414;SDS011;68864;44.972;19.612;2023-07-13T11:05:29;12.20;;;6.45;;
79414;SDS011;68864;44.972;19.612;2023-07-13T11:08:04;10.20;;;6.15;;
79414;SDS011;68864;44.972;19.612;2023-07-13T11:10:49;17.40;;;8.13;;
79414;SDS011;68864;44.972;19.612;2023-07-13T11:13:37;16.52;;;7.03;;
79414;SDS011;68864;44.972;19.612;2023-07-13T11:24:56;14.48;;;6.47;;
79414;SDS011;68864;44.972;19.612;2023-07-13T11:27:35;11.32;;;5.55;;
79414;SDS011;68864;44.972;19.612;2023-07-13T11:33:02;11.63;;;5.88;;
79414;SDS011;68864;44.972;19.612;2023-07-13T11:35:33;11.48;;;5.68;;
79414;SDS011;68864;44.972;19.612;2023-07-13T11:38:04;11.52;;;5.47;;
79414;SDS011;68864;44.972;19.612;2023-07-13T11:40:41;13.88;;;5.47;;
79414;SDS011;68864;44.972;19.612;2023-07-13T11:43:11;14.23;;;6.70;;
79414;SDS011;68864;44.972;19.612;2023-07-13T11:45:39;12.18;;;6.38;;
79414;SDS011;68864;44.972;19.612;2023-07-13T11:48:16;11.60;;;6.38;;
79414;SDS011;68864;44.972;19.612;2023-07-13T11:50:55;17.70;;;5.80;;
79414;SDS011;68864;44.972;19.612;2023-07-13T11:53:26;8.07;;;6.07;;
79414;SDS011;68864;44.972;19.612;2023-07-13T11:55:57;15.88;;;4.60;;
79414;SDS011;68864;44.972;19.612;2023-07-13T11:58:24;10.68;;;5.60;;
79414;SDS011;68864;44.972;19.612;2023-07-13T12:00:54;9.30;;;5.35;;
79414;SDS011;68864;44.972;19.612;2023-07-13T12:03:24;12.43;;;5.72;;
79414;SDS011;68864;44.972;19.612;2023-07-13T12:05:55;19.10;;;8.05;;
79414;SDS011;68864;44.972;19.612;2023-07-13T12:08:23;12.95;;;7.30;;
79414;SDS011;68864;44.972;19.612;2023-07-13T12:10:58;12.95;;;5.63;;
79414;SDS011;68864;44.972;19.612;2023-07-13T12:13:27;12.73;;;5.13;;
79414;SDS011;68864;44.972;19.612;2023-07-13T12:15:54;10.00;;;4.80;;
79414;SDS011;68864;44.972;19.612;2023-07-13T12:18:23;12.68;;;6.15;;
79414;SDS011;68864;44.972;19.612;2023-07-13T12:20:57;13.25;;;9.70;;
79414;SDS011;68864;44.972;19.612;2023-07-13T12:23:25;19.92;;;12.02;;
79414;SDS011;68864;44.972;19.612;2023-07-13T12:25:58;30.15;;;16.88;;
79414;SDS011;68864;44.972;19.612;2023-07-13T12:28:31;21.98;;;14.20;;
79414;SDS011;68864;44.972;19.612;2023-07-13T12:30:59;20.30;;;14.55;;
79414;SDS011;68864;44.972;19.612;2023-07-13T12:33:28;33.20;;;21.35;;
79414;SDS011;68864;44.972;19.612;2023-07-13T12:35:57;12.45;;;7.32;;
79414;SDS011;68864;44.972;19.612;2023-07-13T12:38:28;13.82;;;7.45;;
79414;SDS011;68864;44.972;19.612;2023-07-13T12:40:57;16.70;;;8.88;;
79414;SDS011;68864;44.972;19.612;2023-07-13T12:43:25;14.02;;;7.40;;
79414;SDS011;68864;44.972;19.612;2023-07-13T12:45:56;10.90;;;4.25;;
79414;SDS011;68864;44.972;19.612;2023-07-13T12:48:25;11.35;;;5.10;;
79414;SDS011;68864;44.972;19.612;2023-07-13T12:50:53;10.80;;;3.75;;
79414;SDS011;68864;44.972;19.612;2023-07-13T12:53:22;6.85;;;3.60;;
79414;SDS011;68864;44.972;19.612;2023-07-13T12:55:54;10.57;;;5.55;;
79414;SDS011;68864;44.972;19.612;2023-07-13T12:58:26;11.82;;;3.83;;
79414;SDS011;68864;44.972;19.612;2023-07-13T13:00:54;6.55;;;2.97;;
79414;SDS011;68864;44.972;19.612;2023-07-13T13:03:24;10.27;;;1.70;;
79414;SDS011;68864;44.972;19.612;2023-07-13T13:05:58;8.30;;;3.58;;
79414;SDS011;68864;44.972;19.612;2023-07-13T13:08:28;7.50;;;3.20;;
79414;SDS011;68864;44.972;19.612;2023-07-13T13:10:55;9.45;;;3.45;;
79414;SDS011;68864;44.972;19.612;2023-07-13T13:13:21;12.63;;;3.33;;
79414;SDS011;68864;44.972;19.612;2023-07-13T13:15:49;9.50;;;3.15;;
79414;SDS011;68864;44.972;19.612;2023-07-13T13:18:17;10.73;;;2.03;;
79414;SDS011;68864;44.972;19.612;2023-07-13T13:20:45;9.60;;;4.22;;
79414;SDS011;68864;44.972;19.612;2023-07-13T13:23:12;10.98;;;3.65;;
79414;SDS011;68864;44.972;19.612;2023-07-13T13:25:42;9.27;;;2.70;;
79414;SDS011;68864;44.972;19.612;2023-07-13T13:28:14;7.70;;;3.03;;
79414;SDS011;68864;44.972;19.612;2023-07-13T13:30:43;16.85;;;3.05;;
79414;SDS011;68864;44.972;19.612;2023-07-13T13:33:12;10.95;;;3.28;;
79414;SDS011;68864;44.972;19.612;2023-07-13T13:35:42;8.68;;;3.53;;
79414;SDS011;68864;44.972;19.612;2023-07-13T13:38:10;9.90;;;2.83;;
79414;SDS011;68864;44.972;19.612;2023-07-13T13:40:39;6.53;;;2.28;;
79414;SDS011;68864;44.972;19.612;2023-07-13T13:43:11;6.85;;;1.48;;
79414;SDS011;68864;44.972;19.612;2023-07-13T13:45:41;6.97;;;2.53;;
79414;SDS011;68864;44.972;19.612;2023-07-13T13:48:08;7.13;;;2.10;;
79414;SDS011;68864;44.972;19.612;2023-07-13T13:50:42;8.68;;;1.67;;
79414;SDS011;68864;44.972;19.612;2023-07-13T13:53:12;7.50;;;3.47;;
79414;SDS011;68864;44.972;19.612;2023-07-13T13:55:39;7.93;;;3.30;;
79414;SDS011;68864;44.972;19.612;2023-07-13T13:58:08;8.32;;;3.22;;
79414;SDS011;68864;44.972;19.612;2023-07-13T14:00:35;7.32;;;3.40;;
79414;SDS011;68864;44.972;19.612;2023-07-13T14:03:03;11.73;;;4.00;;
79414;SDS011;68864;44.972;19.612;2023-07-13T14:05:33;6.80;;;2.95;;
79414;SDS011;68864;44.972;19.612;2023-07-13T14:08:00;11.70;;;3.60;;
79414;SDS011;68864;44.972;19.612;2023-07-13T14:10:26;6.03;;;1.10;;
79414;SDS011;68864;44.972;19.612;2023-07-13T14:12:54;8.48;;;2.67;;
79414;SDS011;68864;44.972;19.612;2023-07-13T14:15:23;9.68;;;3.33;;
79414;SDS011;68864;44.972;19.612;2023-07-13T14:17:51;7.03;;;3.03;;
79414;SDS011;68864;44.972;19.612;2023-07-13T14:20:19;10.50;;;3.65;;
79414;SDS011;68864;44.972;19.612;2023-07-13T14:22:50;7.57;;;3.00;;
79414;SDS011;68864;44.972;19.612;2023-07-13T14:25:17;8.27;;;2.38;;
79414;SDS011;68864;44.972;19.612;2023-07-13T14:27:45;9.82;;;2.97;;
79414;SDS011;68864;44.972;19.612;2023-07-13T14:30:16;9.13;;;2.45;;
79414;SDS011;68864;44.972;19.612;2023-07-13T14:32:45;13.27;;;3.13;;
79414;SDS011;68864;44.972;19.612;2023-07-13T14:35:14;10.27;;;3.35;;
79414;SDS011;68864;44.972;19.612;2023-07-13T14:37:42;9.95;;;3.22;;
79414;SDS011;68864;44.972;19.612;2023-07-13T14:40:14;10.02;;;3.28;;
79414;SDS011;68864;44.972;19.612;2023-07-13T14:42:42;9.13;;;3.35;;
79414;SDS011;68864;44.972;19.612;2023-07-13T14:45:12;9.77;;;3.00;;
79414;SDS011;68864;44.972;19.612;2023-07-13T14:47:40;9.02;;;4.78;;
79414;SDS011;68864;44.972;19.612;2023-07-13T14:50:11;9.10;;;3.05;;
79414;SDS011;68864;44.972;19.612;2023-07-13T14:52:40;6.20;;;2.58;;
79414;SDS011;68864;44.972;19.612;2023-07-13T14:55:08;13.15;;;3.42;;
79414;SDS011;68864;44.972;19.612;2023-07-13T14:57:38;9.35;;;5.20;;
79414;SDS011;68864;44.972;19.612;2023-07-13T15:00:05;11.15;;;2.83;;
79414;SDS011;68864;44.972;19.612;2023-07-13T15:02:40;8.95;;;3.40;;
79414;SDS011;68864;44.972;19.612;2023-07-13T15:05:13;11.20;;;4.68;;
79414;SDS011;68864;44.972;19.612;2023-07-13T15:07:40;12.05;;;2.83;;
79414;SDS011;68864;44.972;19.612;2023-07-13T15:10:12;8.20;;;3.40;;
79414;SDS011;68864;44.972;19.612;2023-07-13T15:12:41;6.95;;;3.15;;
79414;SDS011;68864;44.972;19.612;2023-07-13T15:15:08;19.20;;;9.88;;
79414;SDS011;68864;44.972;19.612;2023-07-13T15:17:37;10.15;;;5.05;;
79414;SDS011;68864;44.972;19.612;2023-07-13T15:20:06;14.35;;;7.82;;
79414;SDS011;68864;44.972;19.612;2023-07-13T15:22:43;14.32;;;7.18;;
79414;SDS011;68864;44.972;19.612;2023-07-13T15:25:11;10.60;;;6.45;;
79414;SDS011;68864;44.972;19.612;2023-07-13T15:27:43;9.77;;;4.18;;
79414;SDS011;68864;44.972;19.612;2023-07-13T15:30:10;11.23;;;5.75;;
79414;SDS011;68864;44.972;19.612;2023-07-13T15:32:37;12.27;;;6.30;;
79414;SDS011;68864;44.972;19.612;2023-07-13T15:35:04;7.88;;;4.57;;
79414;SDS011;68864;44.972;19.612;2023-07-13T15:40:04;8.60;;;3.45;;
79414;SDS011;68864;44.972;19.612;2023-07-13T15:42:32;12.73;;;4.90;;
79414;SDS011;68864;44.972;19.612;2023-07-13T15:45:02;12.27;;;4.03;;
79414;SDS011;68864;44.972;19.612;2023-07-13T15:47:30;9.45;;;3.80;;
79414;SDS011;68864;44.972;19.612;2023-07-13T15:49:57;13.32;;;3.78;;
79414;SDS011;68864;44.972;19.612;2023-07-13T15:52:24;10.23;;;4.95;;
79414;SDS011;68864;44.972;19.612;2023-07-13T15:54:51;9.82;;;3.45;;
79414;SDS011;68864;44.972;19.612;2023-07-13T15:57:19;8.90;;;3.38;;
79414;SDS011;68864;44.972;19.612;2023-07-13T15:59:46;9.02;;;3.83;;
79414;SDS011;68864;44.972;19.612;2023-07-13T16:02:16;5.07;;;1.08;;
79414;SDS011;68864;44.972;19.612;2023-07-13T16:04:44;5.38;;;1.95;;
79414;SDS011;68864;44.972;19.612;2023-07-13T16:07:12;6.18;;;2.28;;
79414;SDS011;68864;44.972;19.612;2023-07-13T16:09:42;12.63;;;2.13;;
79414;SDS011;68864;44.972;19.612;2023-07-13T16:12:10;7.60;;;2.20;;
79414;SDS011;68864;44.972;19.612;2023-07-13T16:14:38;5.60;;;2.45;;
79414;SDS011;68864;44.972;19.612;2023-07-13T16:17:05;10.10;;;4.63;;